Time;durP1;ratioP1;P1;durP2;ratioP2;P2;SDS_P1;SDS_P2;PMS_P1;PMS_P2;Temp;Humidity;BMP_temperature;BMP_pressure;BME280_temperature;BME280_humidity;BME280_pressure;Samples;Min_cycle;Max_cycle;Signal;HPM_P1;HPM_P2
2020/12/06 00:00:32;;;;;;;17.80;11.90;;;2.70;99.90;;;;;;5030599;28;20166;-76
2020/12/06 00:02:58;;;;;;;16.33;12.27;;;2.70;99.90;;;;;;5030532;28;20483;-77
2020/12/06 00:05:24;;;;;;;16.88;12.48;;;2.60;99.90;;;;;;5032030;28;20444;-77
2020/12/06 00:07:50;;;;;;;19.55;13.00;;;2.80;99.90;;;;;;5016833;28;20202;-77
2020/12/06 00:10:21;;;;;;;17.97;12.63;;;2.70;99.90;;;;;;5016878;28;20212;-76
2020/12/06 00:12:47;;;;;;;18.27;12.27;;;2.80;99.90;;;;;;5020871;28;20444;-76
2020/12/06 00:15:14;;;;;;;18.87;13.43;;;2.60;99.90;;;;;;5051058;28;20300;-76
2020/12/06 00:17:42;;;;;;;18.77;12.85;;;3.00;99.90;;;;;;5017580;28;20501;-77
2020/12/06 00:20:10;;;;;;;16.97;12.67;;;2.70;99.90;;;;;;5015769;28;20232;-77
2020/12/06 00:22:39;;;;;;;17.23;12.23;;;2.70;99.90;;;;;;5031289;28;20515;-77
2020/12/06 00:25:06;;;;;;;24.63;14.02;;;2.70;99.90;;;;;;5033166;28;20201;-77
2020/12/06 00:27:36;;;;;;;17.52;13.13;;;2.80;99.90;;;;;;5036032;28;20658;-76
2020/12/06 00:30:06;;;;;;;14.25;11.40;;;2.80;99.90;;;;;;5022345;28;20186;-77
2020/12/06 00:32:32;;;;;;;19.80;12.68;;;2.90;99.90;;;;;;5030175;28;20200;-77
2020/12/06 00:34:58;;;;;;;17.38;12.13;;;3.00;99.90;;;;;;5022500;28;20668;-77
2020/12/06 00:37:24;;;;;;;15.00;11.80;;;2.90;99.90;;;;;;5015193;28;20212;-77
2020/12/06 00:39:50;;;;;;;18.40;12.90;;;2.80;99.90;;;;;;5025987;28;20174;-76
2020/12/06 00:42:17;;;;;;;15.98;12.52;;;2.90;99.90;;;;;;5035480;28;20423;-77
2020/12/06 00:44:43;;;;;;;17.05;11.32;;;2.90;99.90;;;;;;5016129;28;20405;-76
2020/12/06 00:47:11;;;;;;;16.95;12.43;;;2.80;99.90;;;;;;5018048;28;20185;-76
2020/12/06 00:49:37;;;;;;;16.13;11.35;;;3.10;99.90;;;;;;5041174;28;20276;-77
2020/12/06 00:52:05;;;;;;;15.10;11.27;;;2.80;99.90;;;;;;5024103;28;20311;-77
2020/12/06 00:54:32;;;;;;;17.83;12.48;;;2.90;99.90;;;;;;5057254;23;20516;-80
2020/12/06 00:57:00;;;;;;;17.07;12.17;;;2.80;99.90;;;;;;5021688;28;20700;-80
2020/12/06 00:59:33;;;;;;;18.00;12.18;;;2.90;99.90;;;;;;5022839;28;20424;-80
2020/12/06 01:02:08;;;;;;;18.65;12.10;;;2.90;99.90;;;;;;5050271;28;20177;-80
2020/12/06 01:04:36;;;;;;;16.55;11.88;;;2.90;99.90;;;;;;5000880;28;20323;-80
2020/12/06 01:07:04;;;;;;;17.35;12.20;;;3.00;99.90;;;;;;5001730;28;20665;-80
2020/12/06 01:09:33;;;;;;;16.73;12.07;;;3.10;99.90;;;;;;5050248;28;20185;-80
2020/12/06 01:12:09;;;;;;;19.83;12.95;;;3.00;99.90;;;;;;5034126;28;20554;-80
2020/12/06 01:14:44;;;;;;;16.60;12.23;;;3.00;99.90;;;;;;5034106;28;20751;-81
2020/12/06 01:17:15;;;;;;;16.88;12.60;;;3.00;99.90;;;;;;5034797;28;20205;-80
2020/12/06 01:19:43;;;;;;;18.80;13.15;;;2.90;99.90;;;;;;5017722;28;20239;-81
2020/12/06 01:22:09;;;;;;;17.83;13.18;;;3.10;99.90;;;;;;5051328;28;20173;-80
2020/12/06 01:24:40;;;;;;;15.65;12.02;;;2.90;99.90;;;;;;5031073;28;20501;-80
2020/12/06 01:27:06;;;;;;;17.80;13.37;;;2.90;99.90;;;;;;5041237;28;20222;-80
2020/12/06 01:29:35;;;;;;;19.75;12.93;;;3.20;99.90;;;;;;5033423;28;20419;-81
2020/12/06 01:32:05;;;;;;;19.27;13.88;;;3.00;99.90;;;;;;5050118;28;20268;-81
2020/12/06 01:34:38;;;;;;;16.50;12.55;;;2.80;99.90;;;;;;5033422;28;20197;-80
2020/12/06 01:37:10;;;;;;;19.13;12.65;;;3.10;99.90;;;;;;5001062;28;20286;-81
2020/12/06 01:39:38;;;;;;;17.63;12.55;;;2.70;99.90;;;;;;5050164;28;20515;-82
2020/12/06 01:42:11;;;;;;;18.25;12.43;;;3.00;99.90;;;;;;5017449;28;20227;-81
2020/12/06 01:44:41;;;;;;;16.48;12.35;;;2.90;99.90;;;;;;5017056;28;20510;-82
2020/12/06 01:47:12;;;;;;;19.73;12.85;;;3.00;99.90;;;;;;5034196;28;20246;-81
2020/12/06 01:49:41;;;;;;;23.17;12.60;;;3.00;99.90;;;;;;5034440;28;20181;-81
2020/12/06 01:52:08;;;;;;;20.75;13.82;;;2.90;99.90;;;;;;5016456;28;20205;-81
2020/12/06 01:54:35;;;;;;;18.58;13.20;;;3.00;99.90;;;;;;5044996;28;20681;-80
2020/12/06 01:57:06;;;;;;;16.23;12.98;;;3.10;99.90;;;;;;5016887;28;20197;-80
2020/12/06 01:59:36;;;;;;;15.50;11.52;;;2.90;99.90;;;;;;5033954;28;20186;-81
2020/12/06 02:02:07;;;;;;;18.10;12.73;;;3.00;99.90;;;;;;5016784;28;20514;-80
2020/12/06 02:04:40;;;;;;;13.32;10.95;;;3.00;99.90;;;;;;5033342;28;20260;-80
2020/12/06 02:07:06;;;;;;;17.92;12.70;;;3.00;99.90;;;;;;5034047;28;20181;-81
2020/12/06 02:09:37;;;;;;;16.75;12.40;;;3.10;99.90;;;;;;5016024;28;20681;-80
2020/12/06 02:12:08;;;;;;;18.85;12.65;;;3.10;99.90;;;;;;5032915;28;20181;-80
2020/12/06 02:14:37;;;;;;;20.30;13.23;;;2.70;99.90;;;;;;5032715;28;20767;-82
2020/12/06 02:17:03;;;;;;;17.70;12.75;;;3.00;99.90;;;;;;4999100;28;20220;-81
2020/12/06 02:19:34;;;;;;;17.37;13.23;;;3.00;99.90;;;;;;5049488;28;20228;-81
2020/12/06 02:22:00;;;;;;;17.25;12.13;;;2.90;99.90;;;;;;5033439;28;20428;-80
2020/12/06 02:24:30;;;;;;;16.40;12.38;;;3.10;99.90;;;;;;5049667;28;20622;-81
2020/12/06 02:27:03;;;;;;;16.63;12.55;;;3.00;99.90;;;;;;5032922;28;20501;-81
2020/12/06 02:29:36;;;;;;;16.48;12.18;;;2.80;99.90;;;;;;5016889;28;20263;-81
2020/12/06 02:32:06;;;;;;;20.10;12.55;;;2.90;99.90;;;;;;5016443;28;20193;-81
2020/12/06 02:34:39;;;;;;;18.00;12.70;;;2.90;99.90;;;;;;5032329;28;20181;-81
2020/12/06 02:37:07;;;;;;;17.75;12.98;;;2.50;99.90;;;;;;5016284;28;20226;-81
2020/12/06 02:39:35;;;;;;;19.10;12.73;;;3.00;99.90;;;;;;5032556;28;20170;-81
2020/12/06 02:42:02;;;;;;;16.80;13.00;;;3.00;99.90;;;;;;5033544;28;20181;-81
2020/12/06 02:44:30;;;;;;;19.17;12.98;;;3.00;99.90;;;;;;5029193;28;20448;-83
2020/12/06 02:46:59;;;;;;;16.30;12.75;;;3.10;99.90;;;;;;5029228;28;20541;-81
2020/12/06 02:49:30;;;;;;;16.85;12.48;;;3.00;99.90;;;;;;4996583;28;20195;-81
2020/12/06 02:51:55;;;;;;;17.00;12.27;;;3.00;99.90;;;;;;5032641;28;20263;-81
2020/12/06 02:54:21;;;;;;;17.67;11.60;;;3.10;99.90;;;;;;5048707;28;20217;-81
2020/12/06 02:56:52;;;;;;;18.30;12.70;;;3.00;99.90;;;;;;5032716;28;20431;-82
2020/12/06 02:59:18;;;;;;;18.27;14.23;;;3.10;99.90;;;;;;5013388;28;20182;-81
2020/12/06 03:01:46;;;;;;;18.02;13.30;;;3.00;99.90;;;;;;5018989;28;20209;-81
2020/12/06 03:04:12;;;;;;;17.25;11.63;;;3.10;99.90;;;;;;4999575;28;20173;-81
2020/12/06 03:06:38;;;;;;;17.30;12.47;;;3.00;99.90;;;;;;5032107;28;20247;-80
2020/12/06 03:09:06;;;;;;;17.87;13.67;;;2.90;99.90;;;;;;5032145;28;20503;-81
2020/12/06 03:11:39;;;;;;;17.65;12.80;;;2.60;99.90;;;;;;5017173;28;20423;-81
2020/12/06 03:14:08;;;;;;;18.02;12.60;;;3.10;99.90;;;;;;5032146;28;20197;-81
2020/12/06 03:16:36;;;;;;;17.90;12.75;;;3.20;99.90;;;;;;5032179;28;20192;-81
2020/12/06 03:19:02;;;;;;;17.02;12.55;;;3.20;99.90;;;;;;5032173;28;20186;-81
2020/12/06 03:21:34;;;;;;;19.83;13.45;;;3.10;99.90;;;;;;5016570;28;20610;-81
2020/12/06 03:24:00;;;;;;;16.85;12.95;;;3.20;99.90;;;;;;5048726;28;20213;-80
2020/12/06 03:26:31;;;;;;;15.68;11.20;;;3.20;99.90;;;;;;5048819;28;20224;-81
2020/12/06 03:29:02;;;;;;;24.52;13.20;;;3.20;99.90;;;;;;5035732;28;20185;-81
2020/12/06 03:31:28;;;;;;;18.10;12.38;;;3.20;99.90;;;;;;5003054;28;20204;-80
2020/12/06 03:33:56;;;;;;;19.60;12.93;;;3.00;99.90;;;;;;5019314;28;20191;-81
2020/12/06 03:36:29;;;;;;;16.93;12.60;;;3.20;99.90;;;;;;5033898;28;20190;-81
2020/12/06 03:38:57;;;;;;;19.75;13.15;;;3.30;99.90;;;;;;5035342;28;20554;-80
2020/12/06 03:41:26;;;;;;;17.73;12.65;;;3.60;99.90;;;;;;5019495;28;20561;-80
2020/12/06 03:43:56;;;;;;;18.23;13.15;;;3.60;99.90;;;;;;5035563;28;20185;-80
2020/12/06 03:46:27;;;;;;;17.10;11.80;;;3.50;99.90;;;;;;5035184;28;20189;-80
2020/12/06 03:48:55;;;;;;;16.83;12.38;;;3.50;99.90;;;;;;5019017;28;20566;-81
2020/12/06 03:51:23;;;;;;;19.83;12.57;;;3.50;99.90;;;;;;4999543;28;20190;-80
2020/12/06 03:53:49;;;;;;;18.53;12.93;;;3.70;99.90;;;;;;5003913;28;20221;-81
2020/12/06 03:56:20;;;;;;;18.67;12.23;;;3.50;99.90;;;;;;5035403;28;20482;-81
2020/12/06 03:58:50;;;;;;;18.75;12.77;;;3.50;99.90;;;;;;5019145;28;20197;-81
2020/12/06 04:01:16;;;;;;;18.08;12.55;;;3.50;99.90;;;;;;5015237;28;20178;-80
2020/12/06 04:03:44;;;;;;;18.05;13.63;;;3.70;99.90;;;;;;5016260;28;20324;-81
2020/12/06 04:06:12;;;;;;;17.88;12.80;;;3.50;99.90;;;;;;5039130;28;20189;-81
2020/12/06 04:08:41;;;;;;;17.53;11.80;;;3.50;99.90;;;;;;5002495;28;20200;-81
2020/12/06 04:11:09;;;;;;;20.35;13.13;;;3.60;99.90;;;;;;5018838;28;20428;-81
2020/12/06 04:13:38;;;;;;;16.23;12.13;;;3.00;99.90;;;;;;5034916;28;20273;-80
2020/12/06 04:16:06;;;;;;;18.52;12.18;;;3.20;99.90;;;;;;5018600;28;20434;-82
2020/12/06 04:18:39;;;;;;;18.92;12.60;;;3.50;99.90;;;;;;5002888;28;20208;-81
2020/12/06 04:21:11;;;;;;;17.33;12.63;;;3.50;99.90;;;;;;5018406;28;20205;-81
2020/12/06 04:23:40;;;;;;;19.17;12.25;;;3.50;99.90;;;;;;5002459;28;20178;-81
2020/12/06 04:26:10;;;;;;;14.50;11.55;;;3.10;99.90;;;;;;5002566;28;20177;-81
2020/12/06 04:28:43;;;;;;;14.20;10.82;;;3.40;99.90;;;;;;5018860;28;20170;-80
2020/12/06 04:31:14;;;;;;;16.92;11.38;;;3.40;99.90;;;;;;5018651;28;20243;-80
2020/12/06 04:33:40;;;;;;;19.70;13.15;;;3.50;99.90;;;;;;5018410;28;20189;-81
2020/12/06 04:36:11;;;;;;;19.33;12.93;;;3.30;99.90;;;;;;5034651;28;20212;-81
2020/12/06 04:38:39;;;;;;;15.70;11.23;;;3.30;99.90;;;;;;5033638;28;20213;-80
2020/12/06 04:41:07;;;;;;;16.70;12.68;;;3.20;99.90;;;;;;5034347;28;20177;-80
2020/12/06 04:43:38;;;;;;;16.60;12.00;;;3.20;99.90;;;;;;5018398;28;20633;-80
2020/12/06 04:46:12;;;;;;;15.07;11.00;;;3.30;99.90;;;;;;5001725;28;20191;-81
2020/12/06 04:48:59;;;;;;;15.18;10.75;;;3.30;99.90;;;;;;5034338;28;20192;-81
2020/12/06 04:51:43;;;;;;;19.40;12.25;;;3.20;99.90;;;;;;5050168;28;20181;-81
2020/12/06 04:54:12;;;;;;;14.82;11.40;;;3.30;99.90;;;;;;5050662;28;20298;-81
2020/12/06 04:56:46;;;;;;;15.35;11.77;;;3.20;99.90;;;;;;5018033;28;20270;-81
2020/12/06 04:59:18;;;;;;;16.92;11.93;;;3.20;99.90;;;;;;5033955;28;20191;-81
2020/12/06 05:01:50;;;;;;;17.65;11.88;;;2.70;99.90;;;;;;5034750;28;20205;-80
2020/12/06 05:04:23;;;;;;;18.52;12.07;;;2.90;99.90;;;;;;5034406;28;20204;-81
2020/12/06 05:06:49;;;;;;;15.80;12.55;;;3.10;99.90;;;;;;5034022;28;20177;-81
2020/12/06 05:09:22;;;;;;;16.38;12.40;;;3.10;99.90;;;;;;5033979;28;20749;-81
2020/12/06 05:11:52;;;;;;;19.85;13.18;;;3.00;99.90;;;;;;5034124;28;20203;-81
2020/12/06 05:14:21;;;;;;;17.80;12.03;;;3.30;99.90;;;;;;5017705;28;20189;-81
2020/12/06 05:16:54;;;;;;;17.80;12.52;;;3.20;99.90;;;;;;5017481;28;20485;-81
2020/12/06 05:19:27;;;;;;;17.23;11.45;;;3.10;99.90;;;;;;5034820;28;20182;-81
2020/12/06 05:21:58;;;;;;;17.15;12.23;;;2.70;99.90;;;;;;5033756;28;20530;-80
2020/12/06 05:24:24;;;;;;;16.65;11.63;;;3.20;99.90;;;;;;5050419;28;20184;-80
2020/12/06 05:26:53;;;;;;;18.73;13.30;;;3.20;99.90;;;;;;5000784;28;20174;-80
2020/12/06 05:29:25;;;;;;;17.80;12.07;;;3.20;99.90;;;;;;5017624;28;20443;-80
2020/12/06 05:31:54;;;;;;;16.25;12.63;;;3.40;99.90;;;;;;5033591;28;20196;-80
2020/12/06 05:34:27;;;;;;;18.42;12.63;;;3.20;99.90;;;;;;5033367;28;20227;-81
2020/12/06 05:36:55;;;;;;;17.17;11.75;;;3.30;99.90;;;;;;5018495;28;20192;-80
2020/12/06 05:39:24;;;;;;;18.73;11.90;;;3.30;99.90;;;;;;4997490;28;20611;-80
2020/12/06 05:41:55;;;;;;;20.30;13.57;;;3.20;99.90;;;;;;5030524;28;20425;-80
2020/12/06 05:44:25;;;;;;;17.48;13.02;;;3.20;99.90;;;;;;5028522;28;20259;-81
2020/12/06 05:46:59;;;;;;;20.75;11.98;;;3.50;99.90;;;;;;5033311;28;20192;-80
2020/12/06 05:49:27;;;;;;;16.05;11.52;;;3.10;99.90;;;;;;5050161;28;20189;-80
2020/12/06 05:51:57;;;;;;;16.83;12.20;;;3.40;99.90;;;;;;5015614;28;20268;-80
2020/12/06 05:54:25;;;;;;;17.63;11.50;;;3.00;99.90;;;;;;5033040;28;20231;-81
2020/12/06 05:56:56;;;;;;;18.47;12.87;;;3.40;99.90;;;;;;5016130;28;20177;-81
2020/12/06 05:59:25;;;;;;;17.35;12.50;;;3.40;99.90;;;;;;5034048;28;20436;-81
2020/12/06 06:01:55;;;;;;;20.17;12.57;;;3.70;99.90;;;;;;5017004;28;20181;-80
2020/12/06 06:04:28;;;;;;;17.20;12.95;;;3.40;99.90;;;;;;5016512;28;20193;-80
2020/12/06 06:07:01;;;;;;;18.60;12.73;;;3.60;99.90;;;;;;5032543;28;20180;-81
2020/12/06 06:09:33;;;;;;;18.33;12.77;;;3.50;99.90;;;;;;5000822;28;20176;-80
2020/12/06 06:12:24;;;;;;;18.38;12.40;;;3.60;99.90;;;;;;5016997;28;20181;-80
2020/12/06 06:15:03;;;;;;;16.83;12.48;;;3.60;99.90;;;;;;5023461;28;20200;-81
2020/12/06 06:17:32;;;;;;;16.80;11.30;;;3.50;99.90;;;;;;5032551;28;20274;-80
2020/12/06 06:20:04;;;;;;;23.15;12.95;;;3.80;99.90;;;;;;5003248;28;20184;-80
2020/12/06 06:22:42;;;;;;;20.48;13.05;;;3.80;99.90;;;;;;5034795;28;20169;-81
2020/12/06 06:25:11;;;;;;;17.50;12.82;;;3.70;99.90;;;;;;5019076;28;20557;-80
2020/12/06 06:27:43;;;;;;;19.67;13.25;;;3.80;99.90;;;;;;5027854;28;20177;-81
2020/12/06 06:30:14;;;;;;;19.67;12.77;;;3.70;99.90;;;;;;5016207;28;20207;-80
2020/12/06 06:32:42;;;;;;;18.50;12.80;;;3.70;99.90;;;;;;5032573;28;20215;-81
2020/12/06 06:35:11;;;;;;;18.63;12.10;;;3.80;99.90;;;;;;5032867;28;20221;-80
2020/12/06 06:37:41;;;;;;;17.45;13.02;;;3.80;99.90;;;;;;5049145;28;20209;-81
2020/12/06 06:40:09;;;;;;;18.23;12.90;;;3.90;99.90;;;;;;5048764;28;20211;-80
2020/12/06 06:42:38;;;;;;;18.67;13.25;;;3.80;99.90;;;;;;5016901;28;20260;-81
2020/12/06 06:45:08;;;;;;;16.70;11.90;;;3.80;99.90;;;;;;5016293;28;20643;-80
2020/12/06 06:47:39;;;;;;;18.85;11.77;;;3.80;99.90;;;;;;5000661;28;20630;-81
2020/12/06 06:50:11;;;;;;;20.08;13.60;;;3.90;99.90;;;;;;5032563;28;20180;-81
2020/12/06 06:52:45;;;;;;;19.95;13.20;;;3.80;99.90;;;;;;5001043;28;20227;-81
2020/12/06 06:55:11;;;;;;;18.23;13.63;;;3.80;99.90;;;;;;4999328;28;20229;-81
2020/12/06 06:57:40;;;;;;;17.20;12.65;;;3.80;99.90;;;;;;5032675;28;20566;-81
2020/12/06 07:00:11;;;;;;;17.60;12.93;;;3.80;99.90;;;;;;5032719;28;20247;-82
2020/12/06 07:02:42;;;;;;;16.83;12.30;;;4.00;99.90;;;;;;5051222;28;20185;-81
2020/12/06 07:05:16;;;;;;;18.98;13.15;;;3.70;99.90;;;;;;5036919;28;20247;-81
2020/12/06 07:07:44;;;;;;;19.20;13.60;;;3.80;99.90;;;;;;5054501;28;20243;-81
2020/12/06 07:10:22;;;;;;;23.90;15.48;;;3.80;99.90;;;;;;5021543;28;20677;-82
2020/12/06 07:12:55;;;;;;;21.42;14.00;;;3.90;99.90;;;;;;5037999;28;20196;-81
2020/12/06 07:15:30;;;;;;;17.65;13.27;;;3.90;99.90;;;;;;5054106;28;20591;-81
2020/12/06 07:18:04;;;;;;;18.67;13.75;;;3.80;99.90;;;;;;5021429;28;20251;-81
2020/12/06 07:20:37;;;;;;;19.75;13.75;;;3.90;99.90;;;;;;5042968;28;20177;-81
2020/12/06 07:23:03;;;;;;;19.58;14.68;;;3.90;99.90;;;;;;5036726;28;20510;-81
2020/12/06 07:25:36;;;;;;;21.38;15.43;;;3.80;99.90;;;;;;5036137;28;20189;-81
2020/12/06 07:28:03;;;;;;;20.75;14.40;;;3.80;99.90;;;;;;5052516;28;20660;-80
2020/12/06 07:30:32;;;;;;;21.17;15.25;;;3.80;99.90;;;;;;5019302;28;20189;-81
2020/12/06 07:33:02;;;;;;;22.38;14.55;;;3.80;99.90;;;;;;5036065;28;20212;-80
2020/12/06 07:35:30;;;;;;;20.30;15.10;;;3.80;99.90;;;;;;5052092;28;20618;-80
2020/12/06 07:37:57;;;;;;;29.25;18.55;;;3.80;99.90;;;;;;5019095;28;20272;-81
2020/12/06 07:40:27;;;;;;;30.05;19.88;;;3.80;99.90;;;;;;5018924;28;20192;-81
2020/12/06 07:42:56;;;;;;;29.65;21.83;;;3.80;99.90;;;;;;5035595;28;20190;-81
2020/12/06 07:45:30;;;;;;;34.50;25.58;;;3.80;99.90;;;;;;5018958;28;20173;-81
2020/12/06 07:48:01;;;;;;;39.47;29.60;;;3.80;99.90;;;;;;5035464;28;20509;-80
2020/12/06 07:50:29;;;;;;;35.40;23.63;;;3.80;99.90;;;;;;5035504;28;20213;-81
2020/12/06 07:53:02;;;;;;;26.05;19.10;;;3.80;99.90;;;;;;5035800;28;20192;-80
2020/12/06 07:55:30;;;;;;;23.85;16.50;;;3.80;99.90;;;;;;5018782;28;20243;-81
2020/12/06 07:58:05;;;;;;;26.02;16.33;;;3.80;99.90;;;;;;5018709;28;20209;-81
2020/12/06 08:00:37;;;;;;;23.23;15.90;;;3.80;99.90;;;;;;5035531;28;20551;-81
2020/12/06 08:03:05;;;;;;;23.45;15.98;;;3.80;99.90;;;;;;5051553;28;20173;-81
2020/12/06 08:05:39;;;;;;;24.75;15.93;;;3.80;99.90;;;;;;5035107;28;20641;-81
2020/12/06 08:08:12;;;;;;;21.58;14.85;;;3.90;99.90;;;;;;5035050;28;20224;-81
2020/12/06 08:10:49;;;;;;;21.35;14.57;;;3.90;99.90;;;;;;4999396;28;20181;-81
2020/12/06 08:13:20;;;;;;;19.88;14.60;;;4.10;99.90;;;;;;5047892;28;20181;-81
2020/12/06 08:15:48;;;;;;;23.17;14.55;;;3.90;99.90;;;;;;5018337;28;20709;-81
2020/12/06 08:18:18;;;;;;;24.55;15.70;;;3.90;99.90;;;;;;5035067;28;20526;-81
2020/12/06 08:20:53;;;;;;;21.35;15.80;;;4.00;99.90;;;;;;5034859;28;20490;-81
2020/12/06 08:23:36;;;;;;;19.75;14.68;;;4.20;99.90;;;;;;5034576;28;20189;-81
2020/12/06 08:26:09;;;;;;;23.45;15.57;;;4.00;99.90;;;;;;5018262;28;20178;-81
2020/12/06 08:28:39;;;;;;;21.27;15.57;;;4.00;99.90;;;;;;5018250;28;20576;-80
2020/12/06 08:31:24;;;;;;;21.00;14.63;;;4.10;99.90;;;;;;5031088;28;20190;-81
2020/12/06 08:33:52;;;;;;;20.40;14.98;;;4.40;99.90;;;;;;4999020;28;20252;-82
2020/12/06 08:36:28;;;;;;;23.63;15.20;;;3.80;99.90;;;;;;5027075;28;20189;-81
2020/12/06 08:38:56;;;;;;;21.90;14.80;;;4.20;99.90;;;;;;5034342;28;20827;-81
2020/12/06 08:41:25;;;;;;;26.05;16.65;;;4.20;99.90;;;;;;5034241;28;20304;-81
2020/12/06 08:44:03;;;;;;;24.45;16.38;;;4.20;99.90;;;;;;5050636;28;20268;-81
2020/12/06 08:46:32;;;;;;;26.15;16.60;;;4.20;99.90;;;;;;5017911;28;20562;-81
2020/12/06 08:49:01;;;;;;;23.77;15.30;;;4.20;99.90;;;;;;5018157;28;20615;-81
2020/12/06 08:51:38;;;;;;;25.17;17.02;;;4.30;99.90;;;;;;5032807;28;20185;-81
2020/12/06 08:54:10;;;;;;;25.27;16.55;;;4.30;99.90;;;;;;5037527;28;20229;-81
2020/12/06 08:56:38;;;;;;;22.55;16.65;;;4.30;99.90;;;;;;5016777;28;20316;-80
2020/12/06 08:59:07;;;;;;;22.88;15.63;;;4.40;99.90;;;;;;5033557;28;20212;-81
2020/12/06 09:01:51;;;;;;;25.10;17.83;;;4.50;99.90;;;;;;5034357;28;20193;-80
2020/12/06 09:04:18;;;;;;;25.73;17.20;;;4.50;99.90;;;;;;5034666;28;20288;-81
2020/12/06 09:06:47;;;;;;;27.50;17.73;;;4.50;99.90;;;;;;5034512;28;20201;-80
2020/12/06 09:09:13;;;;;;;24.98;17.52;;;4.60;99.90;;;;;;5013754;28;20757;-81
2020/12/06 09:11:40;;;;;;;29.52;19.70;;;4.60;99.90;;;;;;5028298;28;20238;-80
2020/12/06 09:14:06;;;;;;;29.65;19.52;;;4.70;99.90;;;;;;5033567;28;20708;-81
2020/12/06 09:16:34;;;;;;;28.52;19.50;;;4.60;99.90;;;;;;5034239;28;20181;-81
2020/12/06 09:19:38;;;;;;;27.67;18.48;;;4.70;99.90;;;;;;5032648;28;20719;-82
2020/12/06 09:22:03;;;;;;;26.92;17.95;;;4.60;99.90;;;;;;5034026;28;20193;-81
2020/12/06 09:24:37;;;;;;;28.60;20.50;;;4.70;99.90;;;;;;5034036;28;20566;-81
2020/12/06 09:27:05;;;;;;;29.00;20.52;;;4.80;99.90;;;;;;5034315;28;20165;-81
2020/12/06 09:29:36;;;;;;;31.75;20.95;;;4.90;99.90;;;;;;5032374;28;20489;-80
2020/12/06 09:32:01;;;;;;;31.08;19.75;;;4.90;99.90;;;;;;5033342;28;20235;-81
2020/12/06 09:34:29;;;;;;;37.30;23.57;;;4.90;99.90;;;;;;5033184;28;20184;-80
2020/12/06 09:36:58;;;;;;;31.38;21.75;;;4.90;99.90;;;;;;5034155;28;20423;-80
2020/12/06 09:39:24;;;;;;;30.55;21.20;;;4.90;99.90;;;;;;5032737;28;20251;-80
2020/12/06 09:41:54;;;;;;;31.73;20.92;;;5.00;99.90;;;;;;5047282;28;20681;-80
2020/12/06 09:44:20;;;;;;;28.98;18.88;;;5.10;99.90;;;;;;5033732;28;20192;-80
2020/12/06 09:46:49;;;;;;;33.73;20.97;;;5.10;99.90;;;;;;5033494;28;20189;-80
2020/12/06 09:49:14;;;;;;;27.90;19.58;;;5.20;99.90;;;;;;5033553;28;20436;-80
2020/12/06 09:51:42;;;;;;;29.60;20.17;;;5.20;99.90;;;;;;5033553;28;20193;-80
2020/12/06 09:54:10;;;;;;;28.52;19.30;;;5.30;99.90;;;;;;5033062;28;20467;-80
2020/12/06 09:56:36;;;;;;;30.80;20.40;;;5.30;99.90;;;;;;5016033;28;20187;-80
2020/12/06 09:59:02;;;;;;;30.60;21.65;;;5.40;99.90;;;;;;5033261;28;20557;-79
2020/12/06 10:01:30;;;;;;;28.13;19.07;;;5.40;99.90;;;;;;5032471;28;20260;-80
2020/12/06 10:03:58;;;;;;;32.10;19.20;;;5.60;99.90;;;;;;5016441;28;20436;-80
2020/12/06 10:06:29;;;;;;;33.55;21.85;;;5.60;99.90;;;;;;5032251;28;20213;-80
2020/12/06 10:08:55;;;;;;;31.10;20.38;;;5.70;99.90;;;;;;5033469;28;20217;-79
2020/12/06 10:11:24;;;;;;;30.53;19.37;;;5.80;99.90;;;;;;5032848;28;20204;-80
2020/12/06 10:13:50;;;;;;;27.38;18.63;;;5.80;99.90;;;;;;5015839;28;20518;-80
2020/12/06 10:16:17;;;;;;;33.13;19.40;;;5.80;99.90;;;;;;5015774;28;20796;-80
2020/12/06 10:18:43;;;;;;;27.52;18.90;;;5.90;99.90;;;;;;5015650;28;20654;-80
2020/12/06 10:21:11;;;;;;;29.55;20.27;;;6.00;99.90;;;;;;5016074;28;20637;-79
2020/12/06 10:23:42;;;;;;;32.50;21.75;;;6.10;99.90;;;;;;5032654;28;20185;-80
2020/12/06 10:26:15;;;;;;;31.27;20.92;;;6.10;99.90;;;;;;5033135;28;20227;-80
2020/12/06 10:28:43;;;;;;;29.10;18.23;;;6.10;99.90;;;;;;5033344;28;20284;-80
2020/12/06 10:31:11;;;;;;;28.53;19.20;;;6.10;99.90;;;;;;5031646;28;20268;-80
2020/12/06 10:33:37;;;;;;;26.58;19.13;;;6.20;99.90;;;;;;5033078;28;20428;-80
2020/12/06 10:36:03;;;;;;;29.20;20.13;;;6.30;99.90;;;;;;5032099;28;20268;-80
2020/12/06 10:38:31;;;;;;;28.10;18.75;;;6.30;99.90;;;;;;5015992;28;20826;-80
2020/12/06 10:40:58;;;;;;;26.67;19.90;;;6.30;99.90;;;;;;5033876;28;20239;-80
2020/12/06 10:43:24;;;;;;;27.95;18.00;;;6.30;99.90;;;;;;5035595;28;20537;-81
2020/12/06 10:45:50;;;;;;;29.60;19.97;;;6.30;99.90;;;;;;5035706;28;20777;-79
2020/12/06 10:48:21;;;;;;;28.27;19.77;;;6.30;99.90;;;;;;5035299;28;20439;-80
2020/12/06 10:50:51;;;;;;;28.83;20.13;;;6.40;99.90;;;;;;5018319;28;20438;-80
2020/12/06 10:53:20;;;;;;;40.22;24.75;;;6.30;99.90;;;;;;5017300;28;20243;-80
2020/12/06 10:55:49;;;;;;;31.90;21.27;;;6.20;99.90;;;;;;5034985;28;20189;-80
2020/12/06 10:58:17;;;;;;;30.75;21.48;;;6.20;99.90;;;;;;5017638;28;20205;-79
2020/12/06 11:00:43;;;;;;;28.10;20.23;;;6.10;99.90;;;;;;5034789;28;20176;-79
2020/12/06 11:03:11;;;;;;;43.75;25.65;;;6.00;99.90;;;;;;5034465;28;20597;-79
2020/12/06 11:05:38;;;;;;;32.43;21.40;;;6.00;99.90;;;;;;5033062;28;20200;-79
2020/12/06 11:08:04;;;;;;;26.10;18.90;;;6.10;99.90;;;;;;5034844;28;20493;-80
2020/12/06 11:10:30;;;;;;;26.20;18.20;;;6.10;99.90;;;;;;5034734;28;20197;-80
2020/12/06 11:12:56;;;;;;;31.58;19.77;;;6.10;99.90;;;;;;5034619;28;20437;-80
2020/12/06 11:15:22;;;;;;;31.70;19.17;;;6.10;99.90;;;;;;5035158;28;20177;-80
2020/12/06 11:17:48;;;;;;;30.97;19.30;;;6.10;99.90;;;;;;5019381;28;20944;-79
2020/12/06 11:20:16;;;;;;;28.50;20.17;;;6.20;99.90;;;;;;5035334;28;20420;-80
2020/12/06 11:22:42;;;;;;;34.90;21.63;;;6.20;99.90;;;;;;5001679;28;20839;-80
2020/12/06 11:25:08;;;;;;;28.80;18.27;;;6.20;99.90;;;;;;5035089;28;20177;-80
2020/12/06 11:27:34;;;;;;;28.97;19.90;;;6.20;99.90;;;;;;5034051;28;20189;-79
2020/12/06 11:30:00;;;;;;;27.88;20.45;;;6.30;99.90;;;;;;5034470;28;20882;-80
2020/12/06 11:32:26;;;;;;;30.80;20.27;;;6.20;99.90;;;;;;5016563;28;20227;-80
2020/12/06 11:34:52;;;;;;;28.30;19.70;;;6.20;99.90;;;;;;5034730;28;20586;-80
2020/12/06 11:37:18;;;;;;;27.42;18.40;;;6.20;99.90;;;;;;5033681;28;20259;-80
2020/12/06 11:39:46;;;;;;;27.95;18.42;;;6.20;99.90;;;;;;5015174;28;20276;-80
2020/12/06 11:42:14;;;;;;;26.60;18.42;;;6.20;99.90;;;;;;5033272;28;20177;-79
2020/12/06 11:44:40;;;;;;;31.98;20.13;;;6.20;99.90;;;;;;5032240;28;20272;-80
2020/12/06 11:47:09;;;;;;;27.73;18.65;;;6.10;99.90;;;;;;5033121;28;20268;-79
2020/12/06 11:49:36;;;;;;;28.90;19.17;;;6.10;99.90;;;;;;5034287;28;20264;-80
2020/12/06 11:52:04;;;;;;;30.42;20.75;;;6.10;99.90;;;;;;5023648;28;20492;-79
2020/12/06 11:54:29;;;;;;;28.42;20.23;;;6.20;99.90;;;;;;5032663;28;20247;-80
2020/12/06 11:56:58;;;;;;;30.05;19.65;;;6.20;99.90;;;;;;5024786;28;20272;-78
2020/12/06 11:59:24;;;;;;;34.93;20.70;;;6.10;99.90;;;;;;5037485;28;20612;-79
2020/12/06 12:01:54;;;;;;;30.43;22.40;;;6.10;99.90;;;;;;5020021;28;20474;-79
2020/12/06 12:04:26;;;;;;;27.85;22.33;;;6.00;99.90;;;;;;5034044;28;20436;-79
2020/12/06 12:11:42;;;;;;;31.10;21.17;;;6.00;99.90;;;;;;5026759;28;20165;-79
2020/12/06 12:21:46;;;;;;;26.73;19.85;;;6.20;99.90;;;;;;5026045;28;20260;-78
2020/12/06 12:24:12;;;;;;;28.10;17.70;;;6.20;99.90;;;;;;5033917;28;20212;-79
2020/12/06 12:26:38;;;;;;;29.92;19.02;;;6.30;99.90;;;;;;5033896;28;20258;-79
2020/12/06 12:29:06;;;;;;;26.90;18.83;;;6.30;99.90;;;;;;5033707;28;20561;-79
2020/12/06 12:32:00;;;;;;;30.83;19.95;;;6.40;99.90;;;;;;5032961;28;20197;-79
2020/12/06 12:49:01;;;;;;;25.88;18.45;;;6.30;99.90;;;;;;4966080;28;20203;-82
2020/12/06 12:52:18;;;;;;;28.48;18.85;;;6.30;99.90;;;;;;4954835;28;20268;-83
2020/12/06 12:59:35;;;;;;;29.33;18.58;;;6.30;99.90;;;;;;4958002;28;20222;-78
2020/12/06 13:02:05;;;;;;;27.85;19.27;;;6.20;99.90;;;;;;4936980;29;20191;-79
2020/12/06 13:08:43;;;;;;;36.90;22.38;;;6.20;99.90;;;;;;5057586;22;20327;-76
2020/12/06 13:11:09;;;;;;;37.17;24.73;;;6.10;99.90;;;;;;5000549;28;20602;-76
2020/12/06 13:13:36;;;;;;;34.60;23.02;;;6.00;99.90;;;;;;5027269;28;20235;-76
2020/12/06 13:16:02;;;;;;;36.20;24.27;;;6.00;99.90;;;;;;5033455;28;20201;-75
2020/12/06 13:18:28;;;;;;;32.85;21.48;;;6.00;99.90;;;;;;5017461;28;20251;-75
2020/12/06 13:20:57;;;;;;;32.80;22.23;;;6.00;99.90;;;;;;5033063;28;20177;-76
2020/12/06 13:23:24;;;;;;;33.30;20.98;;;6.00;99.90;;;;;;5000018;28;20459;-75